Time;durP1;ratioP1;P1;durP2;ratioP2;P2;SDS_P1;SDS_P2;PMS_P1;PMS_P2;Temp;Humidity;BMP_temperature;BMP_pressure;BME280_temperature;BME280_humidity;BME280_pressure;Samples;Min_cycle;Max_cycle;Signal;HPM_P1;HPM_P2
2023/01/01 00:00:54;;;;;;;10.10;6.68;;;13.60;99.90;;;;;;5082783;28;20446;-75
2023/01/01 00:03:20;;;;;;;9.25;6.72;;;13.50;99.90;;;;;;5078845;28;20048;-76
2023/01/01 00:05:46;;;;;;;10.18;6.47;;;13.50;99.90;;;;;;5079213;28;20044;-76
2023/01/01 00:08:11;;;;;;;11.23;7.20;;;13.40;99.90;;;;;;5062062;28;20068;-77
2023/01/01 00:10:37;;;;;;;10.95;7.72;;;13.30;99.90;;;;;;5076106;28;20118;-78
2023/01/01 00:13:03;;;;;;;12.13;8.48;;;13.30;99.90;;;;;;5076977;28;20193;-75
2023/01/01 00:15:28;;;;;;;12.02;8.52;;;13.30;99.90;;;;;;5075828;28;20083;-75
2023/01/01 00:17:55;;;;;;;11.27;7.03;;;13.20;99.90;;;;;;5078249;28;20045;-75
2023/01/01 00:20:21;;;;;;;12.25;7.35;;;13.20;99.90;;;;;;5076411;28;20040;-78
2023/01/01 00:22:47;;;;;;;13.77;7.50;;;13.30;99.90;;;;;;5088981;28;20043;-76
2023/01/01 00:25:13;;;;;;;10.93;6.78;;;13.30;99.90;;;;;;5083940;28;20059;-77
2023/01/01 00:27:40;;;;;;;13.50;7.13;;;13.40;99.90;;;;;;5082392;28;20040;-77
2023/01/01 00:30:10;;;;;;;12.15;7.47;;;13.40;99.90;;;;;;5092911;28;20059;-79
2023/01/01 00:32:36;;;;;;;10.02;7.38;;;13.50;99.90;;;;;;5088932;28;20043;-76
2023/01/01 00:35:02;;;;;;;11.75;8.02;;;13.50;99.90;;;;;;5080377;28;20052;-77
2023/01/01 00:37:27;;;;;;;12.32;7.78;;;13.50;99.90;;;;;;5098037;28;20042;-75
2023/01/01 00:39:53;;;;;;;11.45;8.38;;;13.50;99.90;;;;;;5084554;28;20131;-76
2023/01/01 00:42:19;;;;;;;15.40;10.52;;;13.50;99.90;;;;;;5092357;28;20044;-77
2023/01/01 00:44:45;;;;;;;15.88;11.23;;;13.50;99.90;;;;;;5088227;28;20048;-80
2023/01/01 00:47:11;;;;;;;14.43;10.40;;;13.40;99.90;;;;;;5080675;28;20044;-74
2023/01/01 00:49:36;;;;;;;16.27;10.25;;;13.40;99.90;;;;;;5087365;28;20440;-73
2023/01/01 00:52:02;;;;;;;12.57;9.25;;;13.50;99.90;;;;;;5077382;28;20045;-78
2023/01/01 00:54:28;;;;;;;15.07;10.95;;;13.50;99.90;;;;;;5082311;28;20120;-76
2023/01/01 00:56:54;;;;;;;15.05;10.20;;;13.50;99.90;;;;;;5084852;28;20643;-75
2023/01/01 00:59:20;;;;;;;14.70;10.82;;;13.50;99.90;;;;;;5088439;28;20044;-76
2023/01/01 01:01:46;;;;;;;13.68;10.00;;;13.60;99.90;;;;;;5087430;28;20051;-75
2023/01/01 01:04:11;;;;;;;17.10;10.50;;;13.60;99.90;;;;;;5081919;28;20585;-78
2023/01/01 01:06:37;;;;;;;12.90;10.35;;;13.70;99.90;;;;;;5076872;28;20039;-75
2023/01/01 01:09:03;;;;;;;15.73;10.55;;;13.70;99.90;;;;;;5085063;28;20090;-75
2023/01/01 01:11:29;;;;;;;11.70;9.32;;;13.70;99.90;;;;;;5083058;28;20074;-74
2023/01/01 01:13:56;;;;;;;16.92;11.93;;;13.70;99.90;;;;;;5061627;28;20059;-74
2023/01/01 01:16:32;;;;;;;11.75;8.25;;;13.70;99.90;;;;;;5095156;28;20105;-74
2023/01/01 01:19:01;;;;;;;12.85;9.43;;;13.60;99.90;;;;;;5059606;28;20048;-78
2023/01/01 01:21:29;;;;;;;13.20;9.93;;;13.60;99.90;;;;;;5078184;28;20365;-76
2023/01/01 01:24:01;;;;;;;14.77;10.30;;;13.70;99.90;;;;;;5079338;28;20057;-76
2023/01/01 01:26:29;;;;;;;12.07;8.98;;;13.70;99.90;;;;;;5083594;28;20041;-75
2023/01/01 01:28:56;;;;;;;14.85;10.25;;;13.60;99.90;;;;;;5081173;28;20119;-74
2023/01/01 01:31:25;;;;;;;14.35;9.93;;;13.60;99.90;;;;;;5088642;28;20040;-78
2023/01/01 01:33:51;;;;;;;13.50;9.30;;;13.50;99.90;;;;;;5068760;28;20039;-73
2023/01/01 01:36:17;;;;;;;13.65;9.63;;;13.60;99.90;;;;;;5092834;28;20059;-73
2023/01/01 01:38:44;;;;;;;14.05;9.77;;;13.60;99.90;;;;;;5077085;28;20044;-74
2023/01/01 01:41:12;;;;;;;13.70;8.63;;;13.60;99.90;;;;;;5063881;28;20055;-76
2023/01/01 01:43:38;;;;;;;12.95;9.80;;;13.70;99.90;;;;;;5076563;28;20048;-73
2023/01/01 01:46:11;;;;;;;15.52;9.95;;;13.80;99.90;;;;;;5087633;28;20059;-72
2023/01/01 01:48:42;;;;;;;15.75;10.57;;;13.70;99.90;;;;;;5088230;28;20076;-76
2023/01/01 01:51:10;;;;;;;12.57;9.40;;;13.70;99.90;;;;;;5091339;28;20044;-74
2023/01/01 01:53:41;;;;;;;15.73;10.73;;;13.60;99.90;;;;;;5084621;28;20499;-75
2023/01/01 01:56:12;;;;;;;14.23;9.02;;;13.50;99.90;;;;;;5096072;28;20136;-75
2023/01/01 01:58:38;;;;;;;14.13;10.63;;;13.50;99.90;;;;;;5083902;28;20048;-72
2023/01/01 02:01:04;;;;;;;14.77;10.07;;;13.40;99.90;;;;;;5080078;28;20032;-75
2023/01/01 02:03:42;;;;;;;13.52;10.35;;;13.30;99.90;;;;;;5060945;28;20045;-77
2023/01/01 02:06:09;;;;;;;15.93;10.88;;;13.30;99.90;;;;;;5081644;28;20072;-72
2023/01/01 02:08:35;;;;;;;10.30;8.30;;;13.30;99.90;;;;;;5083306;28;20076;-75
2023/01/01 02:11:01;;;;;;;16.15;9.48;;;13.30;99.90;;;;;;5079629;28;20049;-75
2023/01/01 02:13:27;;;;;;;16.40;11.60;;;13.30;99.90;;;;;;5081338;28;20076;-74
2023/01/01 02:16:21;;;;;;;15.55;9.98;;;13.30;99.90;;;;;;5090799;28;20055;-72
2023/01/01 02:19:10;;;;;;;14.23;9.80;;;13.20;99.90;;;;;;5063171;28;20044;-73
2023/01/01 02:21:56;;;;;;;11.13;9.48;;;13.20;99.90;;;;;;5077762;28;20093;-73
2023/01/01 02:24:52;;;;;;;13.13;9.20;;;13.20;99.90;;;;;;5074738;28;20066;-73
2023/01/01 02:27:26;;;;;;;15.23;9.80;;;13.30;99.90;;;;;;5092588;28;20056;-74
2023/01/01 02:30:05;;;;;;;11.90;8.65;;;13.30;99.90;;;;;;5082551;28;20078;-76
2023/01/01 02:32:43;;;;;;;14.05;8.45;;;13.40;99.90;;;;;;5084293;28;20145;-74
2023/01/01 02:35:34;;;;;;;12.95;8.82;;;13.40;99.90;;;;;;5085995;28;20056;-74
2023/01/01 02:38:04;;;;;;;12.45;8.52;;;13.30;99.90;;;;;;5079881;28;20056;-74
2023/01/01 02:40:33;;;;;;;12.85;8.60;;;13.30;99.90;;;;;;5062251;28;20555;-74
2023/01/01 02:42:59;;;;;;;12.02;7.07;;;13.40;99.90;;;;;;5081473;28;20048;-74
2023/01/01 02:45:25;;;;;;;11.95;7.35;;;13.40;99.90;;;;;;5079128;28;20048;-76
2023/01/01 02:47:51;;;;;;;11.75;7.07;;;13.40;99.90;;;;;;5082783;28;20083;-72
2023/01/01 02:50:22;;;;;;;9.73;7.13;;;13.40;99.90;;;;;;5082440;28;20068;-75
2023/01/01 02:53:00;;;;;;;10.98;6.57;;;13.50;99.90;;;;;;5083838;28;20041;-73
2023/01/01 02:55:43;;;;;;;14.27;7.28;;;13.50;99.90;;;;;;5083622;28;20048;-72
2023/01/01 03:01:29;;;;;;;11.65;5.50;;;13.50;99.90;;;;;;5087537;28;20048;-74
2023/01/01 03:04:06;;;;;;;9.52;5.25;;;13.50;99.90;;;;;;5061981;28;20048;-73
2023/01/01 03:06:44;;;;;;;10.07;5.30;;;13.60;99.90;;;;;;5087511;28;20060;-74
2023/01/01 03:09:26;;;;;;;8.90;5.07;;;13.60;99.90;;;;;;5061960;28;20535;-72
2023/01/01 03:12:03;;;;;;;8.38;4.32;;;13.70;99.90;;;;;;5091616;28;20044;-77
2023/01/01 03:14:41;;;;;;;6.95;3.58;;;13.70;99.90;;;;;;5065116;28;20051;-74
2023/01/01 03:17:33;;;;;;;5.60;3.33;;;13.80;99.90;;;;;;5087948;28;20074;-76
2023/01/01 03:20:05;;;;;;;9.57;3.42;;;13.90;99.90;;;;;;5062655;28;20048;-76
2023/01/01 03:22:34;;;;;;;6.40;3.08;;;13.90;99.90;;;;;;5080727;28;20111;-76
2023/01/01 03:25:07;;;;;;;3.95;2.90;;;13.90;99.90;;;;;;5097462;28;20420;-74
2023/01/01 03:27:41;;;;;;;5.53;2.65;;;14.00;99.90;;;;;;5112932;28;20072;-78
2023/01/01 03:30:11;;;;;;;5.80;2.55;;;14.00;99.90;;;;;;5088555;28;20055;-74
2023/01/01 03:33:04;;;;;;;4.75;2.35;;;14.10;99.90;;;;;;5075518;28;20044;-77
2023/01/01 03:35:34;;;;;;;3.08;1.77;;;14.10;99.90;;;;;;5080941;28;20041;-74
2023/01/01 03:38:02;;;;;;;4.75;2.20;;;14.10;99.90;;;;;;5094994;28;20044;-75
2023/01/01 03:40:33;;;;;;;3.30;1.85;;;14.20;99.90;;;;;;5083758;28;20062;-74
2023/01/01 03:43:05;;;;;;;4.60;2.10;;;14.20;99.90;;;;;;5100100;28;20416;-75
2023/01/01 03:45:40;;;;;;;5.00;2.08;;;14.20;99.90;;;;;;5094556;28;20048;-77
2023/01/01 03:48:06;;;;;;;5.33;2.20;;;14.20;99.90;;;;;;5080619;28;20048;-77
2023/01/01 03:50:52;;;;;;;5.22;1.80;;;14.20;99.90;;;;;;5085019;28;20050;-74
2023/01/01 03:53:23;;;;;;;6.65;2.45;;;14.10;99.90;;;;;;5094935;28;20070;-75
2023/01/01 03:56:03;;;;;;;4.25;1.92;;;14.20;99.90;;;;;;5086992;28;20040;-75
2023/01/01 03:58:44;;;;;;;3.83;2.00;;;14.20;99.90;;;;;;5091044;28;20051;-74
2023/01/01 04:01:16;;;;;;;4.18;1.85;;;14.20;99.90;;;;;;5080910;28;20381;-73
2023/01/01 04:03:42;;;;;;;6.05;1.77;;;14.20;99.90;;;;;;5097872;28;20048;-76
2023/01/01 04:06:10;;;;;;;3.78;1.75;;;14.20;99.90;;;;;;5086922;28;20070;-76
2023/01/01 04:08:36;;;;;;;3.25;1.70;;;14.30;99.90;;;;;;5081022;28;20075;-74
2023/01/01 04:12:00;;;;;;;4.40;1.60;;;14.30;99.90;;;;;;5087771;28;20503;-74
2023/01/01 04:13:53;;;;;;;8.05;1.95;;;14.30;99.90;;;;;;5081440;28;20086;-74
2023/01/01 04:16:19;;;;;;;7.10;2.17;;;14.30;99.90;;;;;;5061096;28;20115;-75
2023/01/01 04:18:45;;;;;;;5.20;1.95;;;14.30;99.90;;;;;;5100506;28;20044;-73
2023/01/01 04:21:11;;;;;;;3.90;1.52;;;14.20;99.90;;;;;;5075413;28;20052;-73
2023/01/01 04:23:37;;;;;;;3.53;1.83;;;14.20;99.90;;;;;;5078016;28;20127;-76
2023/01/01 04:26:03;;;;;;;5.18;1.45;;;14.20;99.90;;;;;;5066171;28;20129;-75
2023/01/01 04:28:28;;;;;;;4.57;1.55;;;14.20;99.90;;;;;;5086403;28;20051;-74
2023/01/01 04:30:54;;;;;;;4.47;1.50;;;14.20;99.90;;;;;;5069651;28;20654;-76
2023/01/01 04:33:20;;;;;;;5.40;1.67;;;14.30;99.90;;;;;;5077227;28;20067;-73
2023/01/01 04:35:46;;;;;;;3.50;1.77;;;14.20;99.90;;;;;;5079716;28;20067;-77
2023/01/01 04:38:15;;;;;;;4.05;1.50;;;14.20;99.90;;;;;;5061916;28;20045;-73
2023/01/01 04:40:40;;;;;;;3.47;1.23;;;14.30;99.90;;;;;;5069058;28;20050;-74
2023/01/01 04:43:06;;;;;;;7.00;1.83;;;14.20;99.90;;;;;;5078384;28;20442;-73
2023/01/01 04:45:32;;;;;;;3.15;1.38;;;14.20;99.90;;;;;;5059743;28;20040;-74
2023/01/01 04:48:03;;;;;;;4.07;1.48;;;14.20;99.90;;;;;;5062229;28;20513;-73
2023/01/01 04:50:29;;;;;;;4.53;1.40;;;14.10;99.90;;;;;;5043731;28;20082;-77
2023/01/01 04:52:54;;;;;;;5.22;1.90;;;14.10;99.90;;;;;;5077736;28;20056;-79
2023/01/01 04:55:20;;;;;;;6.35;1.98;;;14.20;99.90;;;;;;5089757;28;20075;-76
2023/01/01 04:57:46;;;;;;;3.78;1.40;;;14.20;99.90;;;;;;5088200;28;20095;-78
2023/01/01 05:00:12;;;;;;;3.30;1.58;;;14.30;99.90;;;;;;5075260;28;20036;-77
2023/01/01 05:02:38;;;;;;;2.70;1.35;;;14.30;99.90;;;;;;5080357;28;20048;-74
2023/01/01 05:05:04;;;;;;;4.30;1.40;;;14.40;99.90;;;;;;5049279;28;20137;-73
2023/01/01 05:07:29;;;;;;;3.55;1.38;;;14.40;99.90;;;;;;5082101;28;20040;-73
2023/01/01 05:09:55;;;;;;;3.67;1.55;;;14.40;99.90;;;;;;5081564;28;20107;-75
2023/01/01 05:12:21;;;;;;;3.95;1.50;;;14.40;99.90;;;;;;5064743;28;20100;-73
2023/01/01 05:14:46;;;;;;;4.30;1.20;;;14.30;99.90;;;;;;5092249;28;20040;-75
2023/01/01 05:17:12;;;;;;;3.10;1.33;;;14.20;99.90;;;;;;5081524;28;20090;-76
2023/01/01 05:19:38;;;;;;;3.40;1.10;;;14.20;99.90;;;;;;5089828;28;20051;-74
2023/01/01 05:22:03;;;;;;;3.60;1.20;;;14.20;99.90;;;;;;5026126;28;20083;-73
2023/01/01 05:24:30;;;;;;;2.95;1.20;;;14.20;99.90;;;;;;5054310;28;20048;-76
2023/01/01 05:26:56;;;;;;;4.60;1.45;;;14.10;99.90;;;;;;5061284;28;20123;-72
2023/01/01 05:29:23;;;;;;;4.97;1.40;;;14.00;99.90;;;;;;5088159;28;20517;-75
2023/01/01 05:31:48;;;;;;;4.80;1.58;;;14.00;99.90;;;;;;5096049;28;20039;-75
2023/01/01 05:34:14;;;;;;;4.15;1.20;;;14.00;99.90;;;;;;5080596;28;20400;-75
2023/01/01 05:36:40;;;;;;;3.50;1.10;;;14.00;99.90;;;;;;5077253;28;20029;-74
2023/01/01 05:39:10;;;;;;;1.92;1.00;;;14.00;99.90;;;;;;5078079;28;20063;-72
2023/01/01 05:41:36;;;;;;;2.80;1.00;;;14.10;99.90;;;;;;5085174;28;20047;-76
2023/01/01 05:44:04;;;;;;;3.10;0.82;;;14.00;99.90;;;;;;5086332;28;20053;-73
2023/01/01 05:46:30;;;;;;;2.72;0.93;;;14.00;99.90;;;;;;5076403;28;20052;-75
2023/01/01 05:48:55;;;;;;;2.22;0.90;;;13.90;99.90;;;;;;5065818;28;20040;-74
2023/01/01 05:51:26;;;;;;;3.22;0.82;;;13.90;99.90;;;;;;5098296;28;20107;-72
2023/01/01 05:53:56;;;;;;;1.55;0.77;;;13.90;99.90;;;;;;5085563;28;20060;-74
2023/01/01 05:56:22;;;;;;;2.20;1.05;;;13.90;99.90;;;;;;5090070;28;20052;-76
2023/01/01 05:58:48;;;;;;;1.55;0.80;;;13.90;99.90;;;;;;5075630;28;20075;-75
2023/01/01 06:01:17;;;;;;;2.28;0.80;;;13.80;99.90;;;;;;5080264;28;20052;-75
2023/01/01 06:03:44;;;;;;;2.03;0.80;;;13.80;99.90;;;;;;5082588;28;20066;-73
2023/01/01 06:06:12;;;;;;;2.55;0.80;;;13.80;99.90;;;;;;5078585;28;20151;-75
2023/01/01 06:08:38;;;;;;;3.05;0.80;;;13.80;99.90;;;;;;5082394;28;20059;-74
2023/01/01 06:11:07;;;;;;;1.88;0.60;;;13.70;99.90;;;;;;5078956;28;20621;-77
2023/01/01 06:13:33;;;;;;;2.05;0.80;;;13.70;99.90;;;;;;5080531;28;20049;-74
2023/01/01 06:16:00;;;;;;;3.00;0.80;;;13.60;99.90;;;;;;5087859;28;20079;-74
2023/01/01 06:18:30;;;;;;;3.25;1.00;;;13.60;99.90;;;;;;5064867;28;20411;-74
2023/01/01 06:21:08;;;;;;;2.40;1.02;;;13.50;99.90;;;;;;5081062;28;20150;-74
2023/01/01 06:23:34;;;;;;;2.50;1.00;;;13.40;99.90;;;;;;5062521;28;20075;-74
2023/01/01 06:26:11;;;;;;;2.78;0.80;;;13.30;99.90;;;;;;5096291;28;20043;-73
2023/01/01 06:28:37;;;;;;;3.10;1.00;;;13.20;99.90;;;;;;5081352;28;20469;-73
2023/01/01 06:31:05;;;;;;;2.83;1.00;;;13.20;99.90;;;;;;5080800;28;20128;-73
2023/01/01 06:33:31;;;;;;;2.75;0.88;;;13.10;99.90;;;;;;5086402;28;20040;-73
2023/01/01 06:35:58;;;;;;;2.97;1.00;;;13.10;99.90;;;;;;5098174;28;20048;-73
2023/01/01 06:38:24;;;;;;;2.58;1.10;;;13.10;99.90;;;;;;5095451;28;20060;-73
2023/01/01 06:41:02;;;;;;;5.78;1.30;;;13.00;99.90;;;;;;5089764;28;20051;-74
2023/01/01 06:43:30;;;;;;;3.47;1.55;;;13.00;99.90;;;;;;5080589;28;20064;-76
2023/01/01 06:46:06;;;;;;;1.95;0.80;;;13.00;99.90;;;;;;5079035;28;20048;-76
2023/01/01 06:48:34;;;;;;;2.78;1.00;;;13.00;99.90;;;;;;5089849;28;20047;-73
2023/01/01 06:51:06;;;;;;;2.20;0.85;;;12.90;99.90;;;;;;5100534;28;20050;-75
2023/01/01 06:53:31;;;;;;;3.40;1.27;;;12.90;99.90;;;;;;5082413;28;20040;-74
2023/01/01 06:55:57;;;;;;;3.85;0.98;;;13.00;99.90;;;;;;5089150;28;20104;-74
2023/01/01 06:58:23;;;;;;;2.38;1.00;;;13.00;99.90;;;;;;5095300;28;20128;-74
2023/01/01 07:00:48;;;;;;;2.65;1.00;;;12.90;99.90;;;;;;5080572;28;20055;-75
2023/01/01 07:03:14;;;;;;;2.30;0.77;;;13.00;99.90;;;;;;5082694;28;20065;-74
2023/01/01 07:05:40;;;;;;;3.25;0.90;;;13.00;99.90;;;;;;5078877;28;20132;-76
2023/01/01 07:08:06;;;;;;;2.15;1.02;;;13.00;99.90;;;;;;5079665;28;20078;-74
2023/01/01 07:10:31;;;;;;;3.90;2.30;;;13.00;99.90;;;;;;5080009;28;20055;-73
2023/01/01 07:12:57;;;;;;;3.40;0.93;;;13.10;99.90;;;;;;5085162;28;20032;-76
2023/01/01 07:15:23;;;;;;;3.13;0.98;;;13.00;99.90;;;;;;5086230;28;20915;-76
2023/01/01 07:17:48;;;;;;;2.85;0.90;;;13.00;99.90;;;;;;5045544;28;20474;-78
2023/01/01 07:20:14;;;;;;;4.90;1.30;;;12.80;99.90;;;;;;5109911;28;20123;-73
2023/01/01 07:22:40;;;;;;;2.65;0.75;;;12.90;99.90;;;;;;5099829;28;20052;-77
2023/01/01 07:25:06;;;;;;;2.92;1.10;;;12.80;99.90;;;;;;5091491;28;20044;-74
2023/01/01 07:27:32;;;;;;;4.53;1.30;;;12.80;99.90;;;;;;5061402;28;20044;-72
2023/01/01 07:29:58;;;;;;;5.95;1.50;;;12.90;99.90;;;;;;5094769;28;20047;-75
2023/01/01 07:32:23;;;;;;;3.58;1.00;;;12.90;99.90;;;;;;5082541;28;20056;-76
2023/01/01 07:34:49;;;;;;;3.55;0.80;;;12.90;99.90;;;;;;5100605;28;20048;-75
2023/01/01 07:37:15;;;;;;;2.95;1.13;;;12.80;99.90;;;;;;5085601;28;20045;-74
2023/01/01 07:39:40;;;;;;;4.25;1.20;;;12.80;99.90;;;;;;5097971;28;20602;-73
2023/01/01 07:42:06;;;;;;;3.90;1.27;;;12.80;99.90;;;;;;5086490;28;20123;-76
2023/01/01 07:44:32;;;;;;;3.30;1.20;;;12.70;99.90;;;;;;5089647;28;20051;-75
2023/01/01 07:47:07;;;;;;;2.75;0.98;;;12.60;99.90;;;;;;5081212;28;20095;-73
2023/01/01 07:49:33;;;;;;;3.25;1.08;;;12.50;99.90;;;;;;5063039;28;20122;-76
2023/01/01 07:51:59;;;;;;;4.30;1.10;;;12.50;99.90;;;;;;5079759;28;20447;-73
2023/01/01 07:54:24;;;;;;;3.65;1.00;;;12.50;99.90;;;;;;5081242;28;20110;-77
2023/01/01 07:56:50;;;;;;;3.83;1.10;;;12.50;99.90;;;;;;5080606;28;20049;-74
2023/01/01 07:59:16;;;;;;;3.50;1.00;;;12.60;99.90;;;;;;5085095;28;20067;-72
2023/01/01 08:01:41;;;;;;;3.72;1.23;;;12.60;99.90;;;;;;5085169;28;20051;-76
2023/01/01 08:04:08;;;;;;;3.53;1.00;;;12.60;99.90;;;;;;5097303;28;20048;-73
2023/01/01 08:06:33;;;;;;;3.63;1.00;;;12.60;99.90;;;;;;5078626;28;20414;-74
2023/01/01 08:08:59;;;;;;;2.00;0.82;;;12.60;99.90;;;;;;5078800;28;20092;-75
2023/01/01 08:11:25;;;;;;;3.97;1.00;;;12.50;99.90;;;;;;5065761;28;20068;-76
2023/01/01 08:13:51;;;;;;;4.40;1.00;;;12.60;99.90;;;;;;5066707;28;20060;-73
2023/01/01 08:16:16;;;;;;;4.30;0.90;;;12.60;99.90;;;;;;5058087;28;20052;-74
2023/01/01 08:18:42;;;;;;;2.35;1.00;;;12.60;99.90;;;;;;5059656;28;20091;-75
2023/01/01 08:21:08;;;;;;;3.30;1.05;;;12.50;99.90;;;;;;5061991;28;20063;-75
2023/01/01 08:23:33;;;;;;;3.05;1.00;;;12.50;99.90;;;;;;5050904;28;20040;-74
2023/01/01 08:26:00;;;;;;;3.15;0.90;;;12.50;99.90;;;;;;5051498;28;20071;-74
2023/01/01 08:28:27;;;;;;;3.55;1.10;;;12.50;99.90;;;;;;5072023;28;20037;-72
2023/01/01 08:30:52;;;;;;;3.67;1.23;;;12.40;99.90;;;;;;5063490;28;20122;-75
2023/01/01 08:33:18;;;;;;;2.92;0.90;;;12.40;99.90;;;;;;5076709;28;20044;-73
2023/01/01 08:35:44;;;;;;;4.30;1.17;;;12.40;99.90;;;;;;5079121;28;20076;-73
2023/01/01 08:38:11;;;;;;;3.25;1.08;;;12.50;99.90;;;;;;5061747;28;20048;-73
2023/01/01 08:40:37;;;;;;;4.03;1.02;;;12.50;99.90;;;;;;5080937;28;20082;-74
2023/01/01 08:43:03;;;;;;;3.35;0.82;;;12.40;99.90;;;;;;5076422;28;20049;-72
2023/01/01 08:45:28;;;;;;;4.95;1.10;;;12.40;99.90;;;;;;5067741;28;20437;-72
2023/01/01 08:47:54;;;;;;;4.05;1.50;;;12.30;99.90;;;;;;5110078;28;20051;-74
2023/01/01 08:50:20;;;;;;;4.13;1.25;;;12.30;99.90;;;;;;5056657;28;20124;-73
2023/01/01 08:52:45;;;;;;;3.65;1.35;;;12.20;99.90;;;;;;5059702;28;20123;-74
2023/01/01 08:55:11;;;;;;;6.40;1.00;;;12.20;99.90;;;;;;5076245;28;20123;-74
2023/01/01 08:57:37;;;;;;;3.20;1.48;;;12.30;99.90;;;;;;5076578;28;20049;-73
2023/01/01 09:00:04;;;;;;;3.78;1.02;;;12.20;99.90;;;;;;5077748;28;20048;-73
2023/01/01 09:02:30;;;;;;;3.60;1.00;;;12.20;99.90;;;;;;5039276;28;20033;-74
2023/01/01 09:04:56;;;;;;;4.60;1.15;;;12.20;99.90;;;;;;5059978;28;20373;-74
2023/01/01 09:07:21;;;;;;;4.97;1.10;;;12.20;99.90;;;;;;5062981;28;20442;-74
2023/01/01 09:09:47;;;;;;;3.08;1.02;;;12.20;99.90;;;;;;5060352;28;20054;-75
2023/01/01 09:12:16;;;;;;;4.10;1.00;;;12.10;99.90;;;;;;5056809;28;20064;-73
2023/01/01 09:14:42;;;;;;;3.97;1.10;;;12.10;99.90;;;;;;5071026;28;20040;-76
2023/01/01 09:17:08;;;;;;;4.18;1.33;;;12.10;99.90;;;;;;5063836;28;20051;-72
2023/01/01 09:19:33;;;;;;;4.45;1.08;;;12.10;99.90;;;;;;5058178;28;20053;-74
2023/01/01 09:21:59;;;;;;;3.45;1.10;;;12.00;99.90;;;;;;5076588;28;20071;-72
2023/01/01 09:24:25;;;;;;;6.28;1.10;;;12.10;99.90;;;;;;5073884;28;20040;-74
2023/01/01 09:26:51;;;;;;;2.53;0.90;;;12.10;99.90;;;;;;5073666;28;20078;-73
2023/01/01 09:29:17;;;;;;;4.07;1.35;;;12.20;99.90;;;;;;5081632;28;20036;-74
2023/01/01 09:31:44;;;;;;;3.92;1.00;;;12.20;99.90;;;;;;5067932;28;20052;-75
2023/01/01 09:34:09;;;;;;;4.75;1.15;;;12.20;99.90;;;;;;5076840;28;20060;-72
2023/01/01 09:36:35;;;;;;;3.97;1.50;;;12.20;99.90;;;;;;5089037;28;20108;-73
2023/01/01 09:39:01;;;;;;;5.43;0.93;;;12.20;99.90;;;;;;5071716;28;20051;-73
2023/01/01 09:41:54;;;;;;;5.22;1.33;;;12.30;99.90;;;;;;5071940;28;20052;-73
2023/01/01 09:44:43;;;;;;;6.22;1.23;;;12.30;99.90;;;;;;5057480;28;20150;-72
2023/01/01 09:47:39;;;;;;;4.47;1.10;;;12.30;99.90;;;;;;5057022;28;20518;-71
2023/01/01 09:50:13;;;;;;;5.78;1.20;;;12.30;99.90;;;;;;5053058;28;20070;-72
2023/01/01 09:53:03;;;;;;;3.88;1.00;;;12.30;99.90;;;;;;5069317;28;20055;-74
2023/01/01 09:55:53;;;;;;;3.92;1.10;;;12.30;99.90;;;;;;5070882;28;20135;-72
2023/01/01 09:58:24;;;;;;;4.03;0.90;;;12.30;99.90;;;;;;5040959;28;20504;-71
2023/01/01 10:00:54;;;;;;;5.43;1.10;;;12.30;99.90;;;;;;5066840;28;20037;-73
2023/01/01 10:03:38;;;;;;;3.92;1.10;;;12.30;99.90;;;;;;5090782;28;20590;-73
2023/01/01 10:06:33;;;;;;;3.72;1.30;;;12.30;99.90;;;;;;5068722;28;20077;-73
2023/01/01 10:09:53;;;;;;;3.55;1.10;;;12.30;99.90;;;;;;5049471;28;20101;-74
2023/01/01 10:12:43;;;;;;;4.03;1.10;;;12.20;99.90;;;;;;5085330;28;20075;-75
2023/01/01 10:15:15;;;;;;;5.00;1.40;;;12.20;99.90;;;;;;5097794;28;20052;-73
2023/01/01 10:17:47;;;;;;;5.63;1.20;;;12.10;99.90;;;;;;5077672;28;20064;-72
2023/01/01 10:20:24;;;;;;;4.32;1.35;;;12.10;99.90;;;;;;5075500;28;20051;-75
2023/01/01 10:22:58;;;;;;;5.82;0.90;;;12.00;99.90;;;;;;5075767;28;20061;-74
2023/01/01 10:25:26;;;;;;;4.22;1.13;;;12.00;99.90;;;;;;5077720;28;20053;-72
2023/01/01 10:28:24;;;;;;;4.32;1.08;;;12.00;99.90;;;;;;5077052;28;20680;-72
2023/01/01 10:30:57;;;;;;;2.30;0.80;;;11.90;99.90;;;;;;5078172;28;20059;-72
2023/01/01 10:33:24;;;;;;;4.32;1.00;;;11.90;99.90;;;;;;5078996;28;20074;-72
2023/01/01 10:35:54;;;;;;;6.70;1.35;;;11.90;99.90;;;;;;5078053;28;20056;-73
2023/01/01 10:38:23;;;;;;;2.53;1.10;;;12.20;99.90;;;;;;5088137;28;20036;-73
2023/01/01 10:40:50;;;;;;;3.63;1.30;;;12.50;99.90;;;;;;5094909;28;20055;-72
2023/01/01 10:43:16;;;;;;;5.35;0.90;;;12.70;99.90;;;;;;5098308;28;20510;-74
2023/01/01 10:45:51;;;;;;;3.63;0.82;;;12.90;99.90;;;;;;5097010;28;20028;-74
2023/01/01 10:48:21;;;;;;;4.22;1.20;;;13.00;99.90;;;;;;5080514;28;20383;-72
2023/01/01 10:50:59;;;;;;;3.75;1.00;;;12.90;99.90;;;;;;5076625;28;20108;-72
2023/01/01 10:53:37;;;;;;;7.57;1.10;;;12.80;99.90;;;;;;5073287;28;20438;-74
2023/01/01 10:56:10;;;;;;;4.28;1.10;;;12.60;99.90;;;;;;5077289;28;20056;-74
2023/01/01 10:58:45;;;;;;;3.80;1.10;;;12.50;99.90;;;;;;5077487;28;20096;-73
2023/01/01 11:01:20;;;;;;;3.47;0.70;;;12.50;99.90;;;;;;5080303;28;20112;-72
2023/01/01 11:04:02;;;;;;;4.43;1.20;;;12.40;99.90;;;;;;5080507;28;20075;-72
2023/01/01 11:06:35;;;;;;;4.88;1.58;;;12.40;99.90;;;;;;5079608;28;20067;-73
2023/01/01 11:09:18;;;;;;;5.55;0.90;;;12.50;99.90;;;;;;5080345;28;20044;-75
2023/01/01 11:11:54;;;;;;;4.05;1.40;;;12.50;99.90;;;;;;5070651;28;20425;-75
2023/01/01 11:14:26;;;;;;;;;;;12.50;99.90;;;;;;5079720;28;20048;-73
2023/01/01 11:16:52;;;;;;;5.13;1.08;;;12.50;99.90;;;;;;5080735;28;19921;-74
2023/01/01 11:19:35;;;;;;;2.75;1.10;;;12.50;99.90;;;;;;5077970;28;20060;-75
2023/01/01 11:22:02;;;;;;;6.93;1.60;;;12.60;99.90;;;;;;5080834;28;20052;-73
2023/01/01 11:24:38;;;;;;;4.60;1.10;;;12.70;99.90;;;;;;5078567;28;20059;-73
2023/01/01 11:27:12;;;;;;;;;;;12.90;99.90;;;;;;5078743;28;20052;-74
2023/01/01 11:29:38;;;;;;;6.40;1.17;;;12.80;99.90;;;;;;5080005;28;19947;-76
2023/01/01 11:32:07;;;;;;;3.38;0.90;;;12.80;99.90;;;;;;5078097;28;20048;-74
2023/01/01 11:34:38;;;;;;;3.97;0.90;;;12.90;99.90;;;;;;5081554;28;20036;-75
2023/01/01 11:37:18;;;;;;;4.07;0.93;;;13.00;99.90;;;;;;5078054;28;20052;-73
2023/01/01 11:39:47;;;;;;;3.28;0.95;;;12.90;99.90;;;;;;5079482;28;20047;-74
2023/01/01 11:42:21;;;;;;;4.72;1.05;;;12.90;99.90;;;;;;5078850;28;20081;-72
2023/01/01 11:44:54;;;;;;;7.68;1.17;;;12.80;99.90;;;;;;5077962;28;20043;-73
2023/01/01 11:47:26;;;;;;;4.85;1.33;;;12.70;99.90;;;;;;5080327;28;20136;-73
2023/01/01 11:49:55;;;;;;;3.85;1.13;;;12.70;99.90;;;;;;5078956;28;20084;-72
2023/01/01 11:52:51;;;;;;;6.68;1.33;;;12.60;99.90;;;;;;5079879;28;20048;-73
2023/01/01 11:55:42;;;;;;;5.03;1.02;;;12.60;99.90;;;;;;5067330;28;20125;-73
2023/01/01 11:58:26;;;;;;;6.28;1.08;;;12.60;99.90;;;;;;5076922;28;20067;-73
2023/01/01 12:01:01;;;;;;;4.63;1.20;;;12.60;99.90;;;;;;5079716;28;20049;-73
2023/01/01 12:03:41;;;;;;;6.32;1.40;;;12.70;99.90;;;;;;5078976;28;20072;-70
2023/01/01 12:06:22;;;;;;;5.22;1.27;;;12.60;99.90;;;;;;5077411;28;20059;-72
2023/01/01 12:08:55;;;;;;;3.80;1.25;;;12.70;99.90;;;;;;5079308;28;20116;-75
2023/01/01 12:11:43;;;;;;;4.10;1.00;;;12.70;99.90;;;;;;5075319;28;20049;-72
2023/01/01 12:14:34;;;;;;;8.68;1.50;;;12.80;99.90;;;;;;5076740;28;20057;-75
2023/01/01 12:17:04;;;;;;;5.35;1.30;;;12.80;99.90;;;;;;5079215;28;20061;-74
2023/01/01 12:19:31;;;;;;;3.90;1.15;;;12.70;99.90;;;;;;5076801;28;20087;-74
2023/01/01 12:21:59;;;;;;;3.40;1.08;;;12.70;99.90;;;;;;5079781;28;20097;-73
2023/01/01 12:24:32;;;;;;;3.33;1.58;;;12.60;99.90;;;;;;5060542;28;20060;-73
2023/01/01 12:27:23;;;;;;;5.10;1.15;;;12.50;99.90;;;;;;5078400;28;20060;-75
2023/01/01 12:29:54;;;;;;;3.85;1.02;;;12.40;99.90;;;;;;5079357;28;20119;-75
2023/01/01 12:32:58;;;;;;;4.93;1.20;;;12.30;99.90;;;;;;5076820;28;20059;-72
2023/01/01 12:35:46;;;;;;;6.05;1.70;;;12.20;99.90;;;;;;5078548;28;20040;-73
2023/01/01 12:38:14;;;;;;;7.38;1.88;;;12.10;99.90;;;;;;5076477;28;20496;-72
2023/01/01 12:40:47;;;;;;;9.02;1.35;;;12.10;99.90;;;;;;5059717;28;20072;-72
2023/01/01 12:43:29;;;;;;;3.45;1.02;;;12.10;99.90;;;;;;5078572;28;20044;-72
2023/01/01 12:46:13;;;;;;;6.20;1.13;;;12.10;99.90;;;;;;5069715;28;20037;-72
2023/01/01 12:48:50;;;;;;;5.47;1.38;;;12.00;99.90;;;;;;5058396;28;20048;-72
2023/01/01 12:51:44;;;;;;;3.53;1.17;;;12.00;99.90;;;;;;5078405;28;20044;-72
2023/01/01 12:54:28;;;;;;;4.65;1.10;;;12.00;99.90;;;;;;5075895;28;20040;-72
2023/01/01 12:57:00;;;;;;;4.50;1.20;;;11.90;99.90;;;;;;5081033;28;20056;-74
2023/01/01 12:59:30;;;;;;;5.68;1.63;;;12.00;99.90;;;;;;5082351;28;20052;-75
2023/01/01 13:01:59;;;;;;;3.55;1.10;;;12.00;99.90;;;;;;5077053;28;20043;-77
2023/01/01 13:04:25;;;;;;;6.88;1.60;;;12.00;99.90;;;;;;5079038;28;20052;-74
2023/01/01 13:07:04;;;;;;;4.68;1.10;;;12.00;99.90;;;;;;5058992;28;20055;-74